sensor_id;sensor_type;location;lat;lon;timestamp;temperature;humidity
573;DHT22;271;51.114;13.780;2024-02-21T00:00:55;7.80;1.00
573;DHT22;271;51.114;13.780;2024-02-21T00:03:43;7.80;1.00
573;DHT22;271;51.114;13.780;2024-02-21T00:06:30;7.80;1.00
573;DHT22;271;51.114;13.780;2024-02-21T00:09:20;7.80;1.00
573;DHT22;271;51.114;13.780;2024-02-21T00:12:08;7.80;1.00
573;DHT22;271;51.114;13.780;2024-02-21T00:14:55;7.80;1.00
573;DHT22;271;51.114;13.780;2024-02-21T00:17:44;7.80;1.00
573;DHT22;271;51.114;13.780;2024-02-21T00:20:32;7.80;1.00
573;DHT22;271;51.114;13.780;2024-02-21T00:23:19;7.90;1.00
573;DHT22;271;51.114;13.780;2024-02-21T00:26:08;7.80;1.00
573;DHT22;271;51.114;13.780;2024-02-21T00:28:56;7.80;1.00
573;DHT22;271;51.114;13.780;2024-02-21T00:31:44;7.90;1.00
573;DHT22;271;51.114;13.780;2024-02-21T00:34:31;7.80;1.00
573;DHT22;271;51.114;13.780;2024-02-21T00:37:19;7.90;1.00
573;DHT22;271;51.114;13.780;2024-02-21T00:40:08;7.80;1.00
573;DHT22;271;51.114;13.780;2024-02-21T00:42:57;7.90;1.00
573;DHT22;271;51.114;13.780;2024-02-21T00:45:45;7.90;1.00
573;DHT22;271;51.114;13.780;2024-02-21T00:48:32;7.90;1.00
573;DHT22;271;51.114;13.780;2024-02-21T00:51:20;7.90;1.00
573;DHT22;271;51.114;13.780;2024-02-21T00:54:08;7.90;1.00
573;DHT22;271;51.114;13.780;2024-02-21T00:56:55;7.90;1.00
573;DHT22;271;51.114;13.780;2024-02-21T00:59:44;7.90;1.00
573;DHT22;271;51.114;13.780;2024-02-21T01:02:32;7.90;1.00
573;DHT22;271;51.114;13.780;2024-02-21T01:05:21;7.90;1.00
573;DHT22;271;51.114;13.780;2024-02-21T01:08:09;7.90;1.00
573;DHT22;271;51.114;13.780;2024-02-21T01:10:56;7.90;1.00
573;DHT22;271;51.114;13.780;2024-02-21T01:13:44;7.90;1.00
573;DHT22;271;51.114;13.780;2024-02-21T01:16:33;7.90;1.00
573;DHT22;271;51.114;13.780;2024-02-21T01:19:21;7.90;1.00
573;DHT22;271;51.114;13.780;2024-02-21T01:22:09;7.80;1.00
573;DHT22;271;51.114;13.780;2024-02-21T01:24:57;7.80;1.00
573;DHT22;271;51.114;13.780;2024-02-21T01:27:44;7.80;1.00
573;DHT22;271;51.114;13.780;2024-02-21T01:30:32;7.80;1.00
573;DHT22;271;51.114;13.780;2024-02-21T01:33:21;7.90;1.00
573;DHT22;271;51.114;13.780;2024-02-21T01:36:09;7.90;1.00
573;DHT22;271;51.114;13.780;2024-02-21T01:38:57;7.80;1.00
573;DHT22;271;51.114;13.780;2024-02-21T01:41:44;7.80;1.00
573;DHT22;271;51.114;13.780;2024-02-21T01:44:32;7.80;1.00
573;DHT22;271;51.114;13.780;2024-02-21T01:47:20;7.80;1.00
573;DHT22;271;51.114;13.780;2024-02-21T01:50:09;7.80;1.00
573;DHT22;271;51.114;13.780;2024-02-21T01:52:57;7.80;1.00
573;DHT22;271;51.114;13.780;2024-02-21T01:55:45;7.80;1.00
573;DHT22;271;51.114;13.780;2024-02-21T01:58:36;7.70;1.00
573;DHT22;271;51.114;13.780;2024-02-21T02:01:25;7.80;1.00
573;DHT22;271;51.114;13.780;2024-02-21T02:04:12;7.80;1.00
573;DHT22;271;51.114;13.780;2024-02-21T02:07:02;7.80;1.00
573;DHT22;271;51.114;13.780;2024-02-21T02:09:52;7.70;1.00
573;DHT22;271;51.114;13.780;2024-02-21T02:12:40;7.70;1.00
573;DHT22;271;51.114;13.780;2024-02-21T02:15:37;7.70;1.00
573;DHT22;271;51.114;13.780;2024-02-21T02:18:25;7.70;1.00
573;DHT22;271;51.114;13.780;2024-02-21T02:21:20;7.60;1.00
573;DHT22;271;51.114;13.780;2024-02-21T02:24:11;7.70;1.00
573;DHT22;271;51.114;13.780;2024-02-21T02:27:00;7.70;1.00
573;DHT22;271;51.114;13.780;2024-02-21T02:29:48;7.70;1.00
573;DHT22;271;51.114;13.780;2024-02-21T02:32:36;7.70;1.00
573;DHT22;271;51.114;13.780;2024-02-21T02:35:23;7.70;1.00
573;DHT22;271;51.114;13.780;2024-02-21T02:38:12;7.70;1.00
573;DHT22;271;51.114;13.780;2024-02-21T02:41:01;7.80;1.00
573;DHT22;271;51.114;13.780;2024-02-21T02:43:48;7.70;1.00
573;DHT22;271;51.114;13.780;2024-02-21T02:46:36;7.70;1.00
573;DHT22;271;51.114;13.780;2024-02-21T02:49:24;7.70;1.00
573;DHT22;271;51.114;13.780;2024-02-21T02:52:12;7.70;1.00
573;DHT22;271;51.114;13.780;2024-02-21T02:54:59;7.60;1.00
573;DHT22;271;51.114;13.780;2024-02-21T02:57:49;7.60;1.00
573;DHT22;271;51.114;13.780;2024-02-21T03:00:37;7.60;1.00
573;DHT22;271;51.114;13.780;2024-02-21T03:03:25;7.70;1.00
573;DHT22;271;51.114;13.780;2024-02-21T03:06:14;7.70;1.00
573;DHT22;271;51.114;13.780;2024-02-21T03:09:02;7.70;1.00
573;DHT22;271;51.114;13.780;2024-02-21T03:11:54;7.70;1.00
573;DHT22;271;51.114;13.780;2024-02-21T03:14:50;7.60;1.00
573;DHT22;271;51.114;13.780;2024-02-21T03:17:37;7.60;1.00
573;DHT22;271;51.114;13.780;2024-02-21T03:20:25;7.60;1.00
573;DHT22;271;51.114;13.780;2024-02-21T03:23:13;7.60;1.00
573;DHT22;271;51.114;13.780;2024-02-21T03:26:01;7.60;1.00
573;DHT22;271;51.114;13.780;2024-02-21T03:28:49;7.60;1.00
573;DHT22;271;51.114;13.780;2024-02-21T03:31:38;7.60;1.00
573;DHT22;271;51.114;13.780;2024-02-21T03:34:26;7.60;1.00
573;DHT22;271;51.114;13.780;2024-02-21T03:37:13;7.60;1.00
573;DHT22;271;51.114;13.780;2024-02-21T03:40:01;7.60;1.00
573;DHT22;271;51.114;13.780;2024-02-21T03:42:49;7.60;1.00
573;DHT22;271;51.114;13.780;2024-02-21T03:45:43;7.60;1.00
573;DHT22;271;51.114;13.780;2024-02-21T03:48:32;7.60;1.00
573;DHT22;271;51.114;13.780;2024-02-21T03:51:20;7.60;1.00
573;DHT22;271;51.114;13.780;2024-02-21T03:54:07;7.60;1.00
573;DHT22;271;51.114;13.780;2024-02-21T03:56:55;7.60;1.00
573;DHT22;271;51.114;13.780;2024-02-21T03:59:43;7.60;1.00
573;DHT22;271;51.114;13.780;2024-02-21T04:02:30;7.70;1.00
573;DHT22;271;51.114;13.780;2024-02-21T04:05:19;7.70;1.00
573;DHT22;271;51.114;13.780;2024-02-21T04:08:07;7.80;1.00
573;DHT22;271;51.114;13.780;2024-02-21T04:10:55;7.60;1.00
573;DHT22;271;51.114;13.780;2024-02-21T04:13:43;7.70;1.00
573;DHT22;271;51.114;13.780;2024-02-21T04:16:30;7.60;1.00
573;DHT22;271;51.114;13.780;2024-02-21T04:19:18;7.60;1.00
573;DHT22;271;51.114;13.780;2024-02-21T04:22:07;7.60;1.00
573;DHT22;271;51.114;13.780;2024-02-21T04:24:55;7.70;1.00
573;DHT22;271;51.114;13.780;2024-02-21T04:27:43;7.60;1.00
573;DHT22;271;51.114;13.780;2024-02-21T04:30:30;7.70;1.00
573;DHT22;271;51.114;13.780;2024-02-21T04:33:18;7.60;1.00
573;DHT22;271;51.114;13.780;2024-02-21T04:36:06;7.60;1.00
573;DHT22;271;51.114;13.780;2024-02-21T04:38:55;7.60;1.00
573;DHT22;271;51.114;13.780;2024-02-21T04:41:43;7.60;1.00
573;DHT22;271;51.114;13.780;2024-02-21T04:44:31;7.60;1.00
573;DHT22;271;51.114;13.780;2024-02-21T04:47:19;7.60;1.00
573;DHT22;271;51.114;13.780;2024-02-21T04:50:07;7.70;1.00
573;DHT22;271;51.114;13.780;2024-02-21T04:52:55;7.70;1.00
573;DHT22;271;51.114;13.780;2024-02-21T04:55:46;7.70;1.00
573;DHT22;271;51.114;13.780;2024-02-21T04:58:38;7.60;1.00
573;DHT22;271;51.114;13.780;2024-02-21T05:01:26;7.70;1.00
573;DHT22;271;51.114;13.780;2024-02-21T05:04:17;7.70;1.00
573;DHT22;271;51.114;13.780;2024-02-21T05:07:05;7.70;1.00
573;DHT22;271;51.114;13.780;2024-02-21T05:09:52;7.70;1.00
573;DHT22;271;51.114;13.780;2024-02-21T05:12:42;7.70;1.00
573;DHT22;271;51.114;13.780;2024-02-21T05:15:29;7.70;1.00
573;DHT22;271;51.114;13.780;2024-02-21T05:18:18;7.70;1.00
573;DHT22;271;51.114;13.780;2024-02-21T05:21:07;7.80;1.00
573;DHT22;271;51.114;13.780;2024-02-21T05:23:55;7.80;1.00
573;DHT22;271;51.114;13.780;2024-02-21T05:26:43;7.80;1.00
573;DHT22;271;51.114;13.780;2024-02-21T05:29:33;7.80;1.00
573;DHT22;271;51.114;13.780;2024-02-21T05:32:21;7.80;1.00
573;DHT22;271;51.114;13.780;2024-02-21T05:35:09;7.80;1.00
573;DHT22;271;51.114;13.780;2024-02-21T05:37:56;7.80;1.00
573;DHT22;271;51.114;13.780;2024-02-21T05:40:45;7.80;1.00
573;DHT22;271;51.114;13.780;2024-02-21T05:43:33;7.70;1.00
573;DHT22;271;51.114;13.780;2024-02-21T05:46:22;7.70;1.00
573;DHT22;271;51.114;13.780;2024-02-21T05:49:10;7.70;1.00
573;DHT22;271;51.114;13.780;2024-02-21T05:51:58;7.70;1.00
573;DHT22;271;51.114;13.780;2024-02-21T05:54:46;7.70;1.00
573;DHT22;271;51.114;13.780;2024-02-21T05:57:33;7.70;1.00
573;DHT22;271;51.114;13.780;2024-02-21T06:00:21;7.70;1.00
573;DHT22;271;51.114;13.780;2024-02-21T06:03:10;7.80;1.00
573;DHT22;271;51.114;13.780;2024-02-21T06:05:58;7.70;1.00
573;DHT22;271;51.114;13.780;2024-02-21T06:08:46;7.70;1.00
573;DHT22;271;51.114;13.780;2024-02-21T06:11:34;7.80;1.00
573;DHT22;271;51.114;13.780;2024-02-21T06:14:24;7.70;1.00
573;DHT22;271;51.114;13.780;2024-02-21T06:17:11;7.80;1.00
573;DHT22;271;51.114;13.780;2024-02-21T06:20:00;7.80;1.00
573;DHT22;271;51.114;13.780;2024-02-21T06:22:48;7.70;1.00
573;DHT22;271;51.114;13.780;2024-02-21T06:25:36;7.70;1.00
573;DHT22;271;51.114;13.780;2024-02-21T06:28:23;7.60;1.00
573;DHT22;271;51.114;13.780;2024-02-21T06:31:11;7.60;1.00
573;DHT22;271;51.114;13.780;2024-02-21T06:33:59;7.80;1.00
573;DHT22;271;51.114;13.780;2024-02-21T06:36:48;7.60;1.00
573;DHT22;271;51.114;13.780;2024-02-21T06:39:35;7.60;1.00
573;DHT22;271;51.114;13.780;2024-02-21T06:42:25;7.60;1.00
573;DHT22;271;51.114;13.780;2024-02-21T06:45:12;7.60;1.00
573;DHT22;271;51.114;13.780;2024-02-21T06:48:00;7.70;1.00
573;DHT22;271;51.114;13.780;2024-02-21T06:50:48;7.70;1.00
573;DHT22;271;51.114;13.780;2024-02-21T06:53:37;7.70;1.00
573;DHT22;271;51.114;13.780;2024-02-21T06:56:24;7.70;1.00
573;DHT22;271;51.114;13.780;2024-02-21T06:59:15;7.90;1.00
573;DHT22;271;51.114;13.780;2024-02-21T07:02:03;7.70;1.00
573;DHT22;271;51.114;13.780;2024-02-21T07:04:50;7.70;1.00
573;DHT22;271;51.114;13.780;2024-02-21T07:07:38;7.80;1.00
573;DHT22;271;51.114;13.780;2024-02-21T07:10:27;7.90;1.00
573;DHT22;271;51.114;13.780;2024-02-21T07:13:15;7.90;1.00
573;DHT22;271;51.114;13.780;2024-02-21T07:16:04;7.90;1.00
573;DHT22;271;51.114;13.780;2024-02-21T07:18:52;7.90;1.00
573;DHT22;271;51.114;13.780;2024-02-21T07:21:40;8.00;1.00
573;DHT22;271;51.114;13.780;2024-02-21T07:24:28;8.10;1.00
573;DHT22;271;51.114;13.780;2024-02-21T07:27:17;8.10;1.00
573;DHT22;271;51.114;13.780;2024-02-21T07:30:06;8.10;1.00
573;DHT22;271;51.114;13.780;2024-02-21T07:32:54;8.10;1.00
573;DHT22;271;51.114;13.780;2024-02-21T07:35:42;8.10;1.00
573;DHT22;271;51.114;13.780;2024-02-21T07:38:31;8.10;1.00
573;DHT22;271;51.114;13.780;2024-02-21T07:41:39;8.40;1.00
573;DHT22;271;51.114;13.780;2024-02-21T07:44:31;8.40;1.00
573;DHT22;271;51.114;13.780;2024-02-21T07:47:20;8.50;1.00
573;DHT22;271;51.114;13.780;2024-02-21T07:50:08;8.60;1.00
573;DHT22;271;51.114;13.780;2024-02-21T07:52:56;8.60;1.00
573;DHT22;271;51.114;13.780;2024-02-21T07:55:44;8.70;1.00
573;DHT22;271;51.114;13.780;2024-02-21T07:58:32;8.70;1.00
573;DHT22;271;51.114;13.780;2024-02-21T08:01:21;8.80;1.00
573;DHT22;271;51.114;13.780;2024-02-21T08:04:08;8.80;1.00
573;DHT22;271;51.114;13.780;2024-02-21T08:06:56;8.90;1.00
573;DHT22;271;51.114;13.780;2024-02-21T08:09:47;9.10;1.00
573;DHT22;271;51.114;13.780;2024-02-21T08:12:35;8.90;1.00
573;DHT22;271;51.114;13.780;2024-02-21T08:15:23;8.80;1.00
573;DHT22;271;51.114;13.780;2024-02-21T08:18:16;8.80;1.00
573;DHT22;271;51.114;13.780;2024-02-21T08:21:04;8.90;1.00
573;DHT22;271;51.114;13.780;2024-02-21T08:23:51;8.90;1.00
573;DHT22;271;51.114;13.780;2024-02-21T08:26:40;8.90;1.00
573;DHT22;271;51.114;13.780;2024-02-21T08:29:28;9.00;1.00
573;DHT22;271;51.114;13.780;2024-02-21T08:32:16;9.00;1.00
573;DHT22;271;51.114;13.780;2024-02-21T08:35:05;9.00;1.00
573;DHT22;271;51.114;13.780;2024-02-21T08:37:53;9.00;1.00
573;DHT22;271;51.114;13.780;2024-02-21T08:40:41;9.10;1.00
573;DHT22;271;51.114;13.780;2024-02-21T08:43:28;9.00;1.00
573;DHT22;271;51.114;13.780;2024-02-21T08:46:17;8.90;1.00
573;DHT22;271;51.114;13.780;2024-02-21T08:49:05;8.80;1.00
573;DHT22;271;51.114;13.780;2024-02-21T08:51:54;8.80;1.00
573;DHT22;271;51.114;13.780;2024-02-21T08:54:41;8.80;1.00
573;DHT22;271;51.114;13.780;2024-02-21T08:57:29;8.70;1.00
573;DHT22;271;51.114;13.780;2024-02-21T09:00:22;8.70;1.00
573;DHT22;271;51.114;13.780;2024-02-21T09:03:13;8.80;1.00
573;DHT22;271;51.114;13.780;2024-02-21T09:06:01;8.80;1.00
573;DHT22;271;51.114;13.780;2024-02-21T09:08:50;8.80;1.00
573;DHT22;271;51.114;13.780;2024-02-21T09:11:38;8.80;1.00
573;DHT22;271;51.114;13.780;2024-02-21T09:14:27;8.80;1.00
573;DHT22;271;51.114;13.780;2024-02-21T09:17:14;8.80;1.00
573;DHT22;271;51.114;13.780;2024-02-21T09:20:04;8.80;1.00
573;DHT22;271;51.114;13.780;2024-02-21T09:22:52;8.80;1.00
573;DHT22;271;51.114;13.780;2024-02-21T09:25:41;8.80;1.00
573;DHT22;271;51.114;13.780;2024-02-21T09:28:29;8.70;1.00
573;DHT22;271;51.114;13.780;2024-02-21T09:31:17;8.80;1.00
573;DHT22;271;51.114;13.780;2024-02-21T09:34:04;8.80;1.00
573;DHT22;271;51.114;13.780;2024-02-21T09:36:52;8.80;1.00
573;DHT22;271;51.114;13.780;2024-02-21T09:39:40;8.90;1.00
573;DHT22;271;51.114;13.780;2024-02-21T09:42:36;8.80;1.00
573;DHT22;271;51.114;13.780;2024-02-21T09:45:24;8.90;1.00
573;DHT22;271;51.114;13.780;2024-02-21T09:48:30;8.90;1.00
573;DHT22;271;51.114;13.780;2024-02-21T09:51:21;8.90;1.00
573;DHT22;271;51.114;13.780;2024-02-21T09:54:09;8.90;1.00
573;DHT22;271;51.114;13.780;2024-02-21T09:56:56;8.90;1.00
573;DHT22;271;51.114;13.780;2024-02-21T09:59:46;8.80;1.00
573;DHT22;271;51.114;13.780;2024-02-21T10:02:34;8.80;1.00
573;DHT22;271;51.114;13.780;2024-02-21T10:05:21;8.90;1.00
573;DHT22;271;51.114;13.780;2024-02-21T10:08:14;9.00;1.00
573;DHT22;271;51.114;13.780;2024-02-21T10:11:02;8.90;1.00
573;DHT22;271;51.114;13.780;2024-02-21T10:13:49;8.90;1.00
573;DHT22;271;51.114;13.780;2024-02-21T10:16:38;8.90;1.00
573;DHT22;271;51.114;13.780;2024-02-21T10:19:26;8.90;1.00
573;DHT22;271;51.114;13.780;2024-02-21T10:22:15;8.90;1.00
573;DHT22;271;51.114;13.780;2024-02-21T10:25:07;9.00;1.00
573;DHT22;271;51.114;13.780;2024-02-21T10:27:55;9.00;1.00
573;DHT22;271;51.114;13.780;2024-02-21T10:30:50;9.00;1.00
573;DHT22;271;51.114;13.780;2024-02-21T10:33:39;9.00;1.00
573;DHT22;271;51.114;13.780;2024-02-21T10:36:27;9.00;1.00
573;DHT22;271;51.114;13.780;2024-02-21T10:39:15;9.00;1.00
573;DHT22;271;51.114;13.780;2024-02-21T10:42:04;9.00;1.00
573;DHT22;271;51.114;13.780;2024-02-21T10:44:51;9.00;1.00
573;DHT22;271;51.114;13.780;2024-02-21T10:47:42;9.10;1.00
573;DHT22;271;51.114;13.780;2024-02-21T10:50:45;9.10;1.00
573;DHT22;271;51.114;13.780;2024-02-21T10:53:40;9.10;1.00
573;DHT22;271;51.114;13.780;2024-02-21T10:56:32;9.20;1.00
573;DHT22;271;51.114;13.780;2024-02-21T10:59:22;9.30;1.00
573;DHT22;271;51.114;13.780;2024-02-21T11:02:12;9.30;1.00
573;DHT22;271;51.114;13.780;2024-02-21T11:05:01;9.30;1.00
573;DHT22;271;51.114;13.780;2024-02-21T11:07:52;9.30;1.00
573;DHT22;271;51.114;13.780;2024-02-21T11:10:40;9.40;1.00
573;DHT22;271;51.114;13.780;2024-02-21T11:13:35;9.50;1.00
573;DHT22;271;51.114;13.780;2024-02-21T11:16:23;9.40;1.00
573;DHT22;271;51.114;13.780;2024-02-21T11:19:19;9.30;1.00
573;DHT22;271;51.114;13.780;2024-02-21T11:22:14;9.30;1.00
573;DHT22;271;51.114;13.780;2024-02-21T11:25:08;9.30;1.00
573;DHT22;271;51.114;13.780;2024-02-21T11:28:02;9.30;1.00
573;DHT22;271;51.114;13.780;2024-02-21T11:30:50;9.40;1.00
573;DHT22;271;51.114;13.780;2024-02-21T11:33:39;9.40;1.00
573;DHT22;271;51.114;13.780;2024-02-21T11:36:27;9.50;1.00
573;DHT22;271;51.114;13.780;2024-02-21T11:39:23;9.60;1.00
573;DHT22;271;51.114;13.780;2024-02-21T11:42:12;9.60;1.00
573;DHT22;271;51.114;13.780;2024-02-21T11:45:00;9.70;1.00
573;DHT22;271;51.114;13.780;2024-02-21T11:47:48;9.80;1.00
573;DHT22;271;51.114;13.780;2024-02-21T11:50:36;9.90;1.00
573;DHT22;271;51.114;13.780;2024-02-21T11:53:26;10.00;1.00
573;DHT22;271;51.114;13.780;2024-02-21T11:56:17;10.10;1.00
573;DHT22;271;51.114;13.780;2024-02-21T11:59:06;10.00;1.00
573;DHT22;271;51.114;13.780;2024-02-21T12:01:54;10.00;1.00
573;DHT22;271;51.114;13.780;2024-02-21T12:04:42;10.00;1.00
573;DHT22;271;51.114;13.780;2024-02-21T12:07:30;10.00;1.00
573;DHT22;271;51.114;13.780;2024-02-21T12:10:18;10.10;1.00
573;DHT22;271;51.114;13.780;2024-02-21T12:13:09;10.10;1.00
573;DHT22;271;51.114;13.780;2024-02-21T12:15:59;10.00;1.00
573;DHT22;271;51.114;13.780;2024-02-21T12:18:47;9.90;1.00
573;DHT22;271;51.114;13.780;2024-02-21T12:21:35;10.00;1.00
573;DHT22;271;51.114;13.780;2024-02-21T12:24:24;10.00;1.00
573;DHT22;271;51.114;13.780;2024-02-21T12:27:12;10.00;1.00
573;DHT22;271;51.114;13.780;2024-02-21T12:30:00;10.10;1.00
573;DHT22;271;51.114;13.780;2024-02-21T12:32:53;10.10;1.00
573;DHT22;271;51.114;13.780;2024-02-21T12:35:41;10.10;1.00
573;DHT22;271;51.114;13.780;2024-02-21T12:38:29;10.10;1.00
573;DHT22;271;51.114;13.780;2024-02-21T12:41:17;10.30;1.00
573;DHT22;271;51.114;13.780;2024-02-21T12:44:04;10.40;1.00
573;DHT22;271;51.114;13.780;2024-02-21T12:46:53;10.50;1.00
573;DHT22;271;51.114;13.780;2024-02-21T12:49:42;10.60;1.00
573;DHT22;271;51.114;13.780;2024-02-21T12:52:30;10.60;1.00
573;DHT22;271;51.114;13.780;2024-02-21T12:55:18;10.60;1.00
573;DHT22;271;51.114;13.780;2024-02-21T12:58:05;10.60;1.00
573;DHT22;271;51.114;13.780;2024-02-21T13:00:53;10.60;1.00
573;DHT22;271;51.114;13.780;2024-02-21T13:03:41;10.80;1.00
573;DHT22;271;51.114;13.780;2024-02-21T13:06:31;11.30;1.00
573;DHT22;271;51.114;13.780;2024-02-21T13:09:18;11.60;1.00
573;DHT22;271;51.114;13.780;2024-02-21T13:12:07;11.80;1.00
573;DHT22;271;51.114;13.780;2024-02-21T13:14:55;11.90;1.00
573;DHT22;271;51.114;13.780;2024-02-21T13:17:43;12.10;1.00
573;DHT22;271;51.114;13.780;2024-02-21T13:20:31;12.20;1.00
573;DHT22;271;51.114;13.780;2024-02-21T13:23:20;12.40;1.00
573;DHT22;271;51.114;13.780;2024-02-21T13:26:08;12.60;1.00
573;DHT22;271;51.114;13.780;2024-02-21T13:28:56;12.60;1.00
573;DHT22;271;51.114;13.780;2024-02-21T13:31:44;12.60;1.00
573;DHT22;271;51.114;13.780;2024-02-21T13:34:32;12.70;1.00
573;DHT22;271;51.114;13.780;2024-02-21T13:37:20;12.80;1.00
573;DHT22;271;51.114;13.780;2024-02-21T13:40:10;12.70;1.00
573;DHT22;271;51.114;13.780;2024-02-21T13:42:57;12.70;1.00
573;DHT22;271;51.114;13.780;2024-02-21T13:45:55;12.70;1.00
573;DHT22;271;51.114;13.780;2024-02-21T13:48:43;12.90;1.00
573;DHT22;271;51.114;13.780;2024-02-21T13:51:31;12.90;1.00
573;DHT22;271;51.114;13.780;2024-02-21T13:54:18;13.00;1.00
573;DHT22;271;51.114;13.780;2024-02-21T13:57:09;13.20;1.00
573;DHT22;271;51.114;13.780;2024-02-21T13:59:57;12.90;1.00
573;DHT22;271;51.114;13.780;2024-02-21T14:02:46;12.70;1.00
573;DHT22;271;51.114;13.780;2024-02-21T14:05:33;12.50;1.00
573;DHT22;271;51.114;13.780;2024-02-21T14:08:21;12.60;1.00
573;DHT22;271;51.114;13.780;2024-02-21T14:11:10;12.70;1.00
573;DHT22;271;51.114;13.780;2024-02-21T14:13:59;12.70;1.00
573;DHT22;271;51.114;13.780;2024-02-21T14:16:47;12.70;1.00
573;DHT22;271;51.114;13.780;2024-02-21T14:19:36;12.80;1.00
573;DHT22;271;51.114;13.780;2024-02-21T14:22:25;12.80;1.00
573;DHT22;271;51.114;13.780;2024-02-21T14:25:12;12.80;1.00
573;DHT22;271;51.114;13.780;2024-02-21T14:28:01;12.70;1.00
573;DHT22;271;51.114;13.780;2024-02-21T14:30:51;12.70;1.00
573;DHT22;271;51.114;13.780;2024-02-21T14:33:43;12.50;1.00
573;DHT22;271;51.114;13.780;2024-02-21T14:36:32;12.40;1.00
573;DHT22;271;51.114;13.780;2024-02-21T14:39:20;12.30;1.00
573;DHT22;271;51.114;13.780;2024-02-21T14:42:07;12.30;1.00
573;DHT22;271;51.114;13.780;2024-02-21T14:44:56;12.20;1.00
573;DHT22;271;51.114;13.780;2024-02-21T14:47:51;12.10;1.00
573;DHT22;271;51.114;13.780;2024-02-21T14:50:39;12.10;1.00
573;DHT22;271;51.114;13.780;2024-02-21T14:53:26;12.00;1.00
573;DHT22;271;51.114;13.780;2024-02-21T14:56:16;12.00;1.00
573;DHT22;271;51.114;13.780;2024-02-21T14:59:03;11.90;1.00
573;DHT22;271;51.114;13.780;2024-02-21T15:01:51;11.80;1.00
573;DHT22;271;51.114;13.780;2024-02-21T15:04:41;11.70;1.00
573;DHT22;271;51.114;13.780;2024-02-21T15:07:28;11.60;1.00
573;DHT22;271;51.114;13.780;2024-02-21T15:10:16;11.60;1.00
573;DHT22;271;51.114;13.780;2024-02-21T15:13:05;11.60;1.00
573;DHT22;271;51.114;13.780;2024-02-21T15:15:52;11.50;1.00
573;DHT22;271;51.114;13.780;2024-02-21T15:18:40;11.40;1.00
573;DHT22;271;51.114;13.780;2024-02-21T15:21:29;11.40;1.00
573;DHT22;271;51.114;13.780;2024-02-21T15:24:17;11.30;1.00
573;DHT22;271;51.114;13.780;2024-02-21T15:27:05;11.30;1.00
573;DHT22;271;51.114;13.780;2024-02-21T15:29:53;11.20;1.00
573;DHT22;271;51.114;13.780;2024-02-21T15:32:41;11.10;1.00
573;DHT22;271;51.114;13.780;2024-02-21T15:35:30;11.00;1.00
573;DHT22;271;51.114;13.780;2024-02-21T15:38:19;11.00;1.00
573;DHT22;271;51.114;13.780;2024-02-21T15:41:07;10.90;1.00
573;DHT22;271;51.114;13.780;2024-02-21T15:43:55;10.90;1.00
573;DHT22;271;51.114;13.780;2024-02-21T15:46:45;10.80;1.00
573;DHT22;271;51.114;13.780;2024-02-21T15:49:33;10.70;1.00
573;DHT22;271;51.114;13.780;2024-02-21T15:52:20;10.70;1.00
573;DHT22;271;51.114;13.780;2024-02-21T15:55:10;10.60;1.00
573;DHT22;271;51.114;13.780;2024-02-21T15:57:58;10.50;1.00
573;DHT22;271;51.114;13.780;2024-02-21T16:00:46;10.40;1.00
573;DHT22;271;51.114;13.780;2024-02-21T16:03:34;10.20;1.00
573;DHT22;271;51.114;13.780;2024-02-21T16:06:22;10.10;1.00
573;DHT22;271;51.114;13.780;2024-02-21T16:09:10;10.00;1.00
573;DHT22;271;51.114;13.780;2024-02-21T16:11:59;10.00;1.00
573;DHT22;271;51.114;13.780;2024-02-21T16:14:51;9.90;1.00
573;DHT22;271;51.114;13.780;2024-02-21T16:17:39;9.90;1.00
573;DHT22;271;51.114;13.780;2024-02-21T16:20:27;9.70;1.00
573;DHT22;271;51.114;13.780;2024-02-21T16:23:15;9.70;1.00
573;DHT22;271;51.114;13.780;2024-02-21T16:26:03;9.60;1.00
573;DHT22;271;51.114;13.780;2024-02-21T16:28:52;9.50;1.00
573;DHT22;271;51.114;13.780;2024-02-21T16:31:40;9.30;1.00
573;DHT22;271;51.114;13.780;2024-02-21T16:34:28;9.30;1.00
573;DHT22;271;51.114;13.780;2024-02-21T16:37:15;9.30;1.00
573;DHT22;271;51.114;13.780;2024-02-21T16:40:04;9.30;1.00
573;DHT22;271;51.114;13.780;2024-02-21T16:42:52;9.20;1.00
573;DHT22;271;51.114;13.780;2024-02-21T16:45:42;9.00;1.00
573;DHT22;271;51.114;13.780;2024-02-21T16:48:29;8.90;1.00
573;DHT22;271;51.114;13.780;2024-02-21T16:51:17;8.80;1.00
573;DHT22;271;51.114;13.780;2024-02-21T16:54:05;8.70;1.00
573;DHT22;271;51.114;13.780;2024-02-21T16:56:54;8.60;1.00
573;DHT22;271;51.114;13.780;2024-02-21T16:59:42;8.50;1.00
573;DHT22;271;51.114;13.780;2024-02-21T17:02:31;8.40;1.00
573;DHT22;271;51.114;13.780;2024-02-21T17:05:19;8.40;1.00
573;DHT22;271;51.114;13.780;2024-02-21T17:08:10;8.30;1.00
573;DHT22;271;51.114;13.780;2024-02-21T17:11:03;8.30;1.00
573;DHT22;271;51.114;13.780;2024-02-21T17:14:33;8.20;1.00
573;DHT22;271;51.114;13.780;2024-02-21T17:17:36;8.10;1.00
573;DHT22;271;51.114;13.780;2024-02-21T17:20:24;8.00;1.00
573;DHT22;271;51.114;13.780;2024-02-21T17:23:11;7.90;1.00
573;DHT22;271;51.114;13.780;2024-02-21T17:25:59;7.80;1.00
573;DHT22;271;51.114;13.780;2024-02-21T17:28:47;7.60;1.00
573;DHT22;271;51.114;13.780;2024-02-21T17:31:35;7.60;1.00
573;DHT22;271;51.114;13.780;2024-02-21T17:34:25;7.50;1.00
573;DHT22;271;51.114;13.780;2024-02-21T17:37:13;7.50;1.00
573;DHT22;271;51.114;13.780;2024-02-21T17:40:00;7.40;1.00
573;DHT22;271;51.114;13.780;2024-02-21T17:42:50;7.30;1.00
573;DHT22;271;51.114;13.780;2024-02-21T17:45:38;7.20;1.00
573;DHT22;271;51.114;13.780;2024-02-21T17:48:27;7.20;1.00
573;DHT22;271;51.114;13.780;2024-02-21T17:51:16;7.10;1.00
573;DHT22;271;51.114;13.780;2024-02-21T17:54:04;6.90;1.00
573;DHT22;271;51.114;13.780;2024-02-21T17:56:52;6.80;1.00
573;DHT22;271;51.114;13.780;2024-02-21T17:59:40;6.80;1.00
573;DHT22;271;51.114;13.780;2024-02-21T18:02:30;6.70;1.00
573;DHT22;271;51.114;13.780;2024-02-21T18:05:19;6.70;1.00
573;DHT22;271;51.114;13.780;2024-02-21T18:08:08;6.60;1.00
573;DHT22;271;51.114;13.780;2024-02-21T18:10:57;6.60;1.00
573;DHT22;271;51.114;13.780;2024-02-21T18:13:46;6.50;1.00
573;DHT22;271;51.114;13.780;2024-02-21T18:16:34;6.40;1.00
573;DHT22;271;51.114;13.780;2024-02-21T18:19:22;6.40;1.00
573;DHT22;271;51.114;13.780;2024-02-21T18:22:13;6.20;1.00
573;DHT22;271;51.114;13.780;2024-02-21T18:28:57;6.20;4.80
573;DHT22;271;51.114;13.780;2024-02-21T18:31:51;6.20;8.40
573;DHT22;271;51.114;13.780;2024-02-21T18:34:41;6.30;8.30
573;DHT22;271;51.114;13.780;2024-02-21T18:37:51;6.30;7.20
573;DHT22;271;51.114;13.780;2024-02-21T18:41:10;6.30;9.60
573;DHT22;271;51.114;13.780;2024-02-21T18:44:02;6.20;10.90
573;DHT22;271;51.114;13.780;2024-02-21T18:46:50;6.30;10.70
573;DHT22;271;51.114;13.780;2024-02-21T18:49:38;6.20;11.50
573;DHT22;271;51.114;13.780;2024-02-21T18:52:28;6.20;13.90
573;DHT22;271;51.114;13.780;2024-02-21T18:55:16;6.20;15.90
573;DHT22;271;51.114;13.780;2024-02-21T18:58:04;6.30;16.40
573;DHT22;271;51.114;13.780;2024-02-21T19:00:53;6.40;14.10
573;DHT22;271;51.114;13.780;2024-02-21T19:03:41;6.30;14.50
573;DHT22;271;51.114;13.780;2024-02-21T19:06:42;6.30;15.90
573;DHT22;271;51.114;13.780;2024-02-21T19:09:30;6.30;16.60
573;DHT22;271;51.114;13.780;2024-02-21T19:12:21;6.30;14.60
573;DHT22;271;51.114;13.780;2024-02-21T19:23:28;6.30;15.10
573;DHT22;271;51.114;13.780;2024-02-21T19:26:17;6.20;13.70